sensor_id;sensor_type;location;lat;lon;timestamp;P1;P2;P0
80643;PMS5003;70010;60.224;24.712;2023-09-19T00:01:56;4;3;
80643;PMS5003;70010;60.224;24.712;2023-09-19T00:04:21;4;2;
80643;PMS5003;70010;60.224;24.712;2023-09-19T00:06:46;3;2;
80643;PMS5003;70010;60.224;24.712;2023-09-19T00:09:12;4;4;
80643;PMS5003;70010;60.224;24.712;2023-09-19T00:11:37;3;3;
80643;PMS5003;70010;60.224;24.712;2023-09-19T00:14:02;2;2;
80643;PMS5003;70010;60.224;24.712;2023-09-19T00:16:27;1;1;
80643;PMS5003;70010;60.224;24.712;2023-09-19T00:18:53;3;3;
80643;PMS5003;70010;60.224;24.712;2023-09-19T00:21:18;2;1;
80643;PMS5003;70010;60.224;24.712;2023-09-19T00:23:43;3;3;
80643;PMS5003;70010;60.224;24.712;2023-09-19T00:26:08;3;3;
80643;PMS5003;70010;60.224;24.712;2023-09-19T00:28:34;2;2;
80643;PMS5003;70010;60.224;24.712;2023-09-19T00:30:59;2;2;
80643;PMS5003;70010;60.224;24.712;2023-09-19T00:33:24;4;3;
80643;PMS5003;70010;60.224;24.712;2023-09-19T00:35:50;3;3;
80643;PMS5003;70010;60.224;24.712;2023-09-19T00:38:15;4;4;
80643;PMS5003;70010;60.224;24.712;2023-09-19T00:40:43;3;2;
80643;PMS5003;70010;60.224;24.712;2023-09-19T00:43:05;2;2;
80643;PMS5003;70010;60.224;24.712;2023-09-19T00:45:31;5;4;
80643;PMS5003;70010;60.224;24.712;2023-09-19T00:47:56;4;4;
80643;PMS5003;70010;60.224;24.712;2023-09-19T00:50:22;2;2;
80643;PMS5003;70010;60.224;24.712;2023-09-19T00:52:46;3;3;
80643;PMS5003;70010;60.224;24.712;2023-09-19T00:55:12;2;2;
80643;PMS5003;70010;60.224;24.712;2023-09-19T00:57:37;2;2;
80643;PMS5003;70010;60.224;24.712;2023-09-19T01:00:03;4;2;
80643;PMS5003;70010;60.224;24.712;2023-09-19T01:02:28;2;2;
80643;PMS5003;70010;60.224;24.712;2023-09-19T01:04:53;3;3;
80643;PMS5003;70010;60.224;24.712;2023-09-19T01:07:18;3;3;
80643;PMS5003;70010;60.224;24.712;2023-09-19T01:09:43;3;3;
80643;PMS5003;70010;60.224;24.712;2023-09-19T01:12:09;2;2;
80643;PMS5003;70010;60.224;24.712;2023-09-19T01:14:36;3;3;
80643;PMS5003;70010;60.224;24.712;2023-09-19T01:17:00;4;2;
80643;PMS5003;70010;60.224;24.712;2023-09-19T01:19:39;2;2;
80643;PMS5003;70010;60.224;24.712;2023-09-19T01:21:51;1;1;
80643;PMS5003;70010;60.224;24.712;2023-09-19T01:24:22;2;2;
80643;PMS5003;70010;60.224;24.712;2023-09-19T01:26:48;0;0;
80643;PMS5003;70010;60.224;24.712;2023-09-19T01:29:12;3;3;
80643;PMS5003;70010;60.224;24.712;2023-09-19T01:31:31;5;3;
80643;PMS5003;70010;60.224;24.712;2023-09-19T01:33:57;3;3;
80643;PMS5003;70010;60.224;24.712;2023-09-19T01:36:21;3;3;
80643;PMS5003;70010;60.224;24.712;2023-09-19T01:38:47;2;2;
80643;PMS5003;70010;60.224;24.712;2023-09-19T01:41:12;3;2;
80643;PMS5003;70010;60.224;24.712;2023-09-19T01:43:38;2;2;
80643;PMS5003;70010;60.224;24.712;2023-09-19T01:46:04;2;2;
80643;PMS5003;70010;60.224;24.712;2023-09-19T01:48:34;3;3;
80643;PMS5003;70010;60.224;24.712;2023-09-19T01:50:55;3;3;
80643;PMS5003;70010;60.224;24.712;2023-09-19T01:53:19;1;1;
80643;PMS5003;70010;60.224;24.712;2023-09-19T01:55:46;3;3;
80643;PMS5003;70010;60.224;24.712;2023-09-19T01:58:12;2;2;
80643;PMS5003;70010;60.224;24.712;2023-09-19T02:00:35;4;3;
80643;PMS5003;70010;60.224;24.712;2023-09-19T02:02:59;1;1;
80643;PMS5003;70010;60.224;24.712;2023-09-19T02:05:25;3;3;
80643;PMS5003;70010;60.224;24.712;2023-09-19T02:07:50;3;3;
80643;PMS5003;70010;60.224;24.712;2023-09-19T02:10:15;3;3;
80643;PMS5003;70010;60.224;24.712;2023-09-19T02:12:41;3;2;
80643;PMS5003;70010;60.224;24.712;2023-09-19T02:15:07;2;2;
80643;PMS5003;70010;60.224;24.712;2023-09-19T02:17:36;2;2;
80643;PMS5003;70010;60.224;24.712;2023-09-19T02:20:01;3;3;
80643;PMS5003;70010;60.224;24.712;2023-09-19T02:22:26;1;1;
80643;PMS5003;70010;60.224;24.712;2023-09-19T02:24:52;1;1;
80643;PMS5003;70010;60.224;24.712;2023-09-19T02:27:17;5;4;
80643;PMS5003;70010;60.224;24.712;2023-09-19T02:29:42;4;3;
80643;PMS5003;70010;60.224;24.712;2023-09-19T02:32:08;2;2;
80643;PMS5003;70010;60.224;24.712;2023-09-19T02:34:33;4;3;
80643;PMS5003;70010;60.224;24.712;2023-09-19T02:36:58;1;1;
80643;PMS5003;70010;60.224;24.712;2023-09-19T02:39:23;3;3;
80643;PMS5003;70010;60.224;24.712;2023-09-19T02:41:49;3;1;
80643;PMS5003;70010;60.224;24.712;2023-09-19T02:44:14;3;2;
80643;PMS5003;70010;60.224;24.712;2023-09-19T02:46:39;3;3;
80643;PMS5003;70010;60.224;24.712;2023-09-19T02:49:05;4;3;
80643;PMS5003;70010;60.224;24.712;2023-09-19T02:51:30;4;4;
80643;PMS5003;70010;60.224;24.712;2023-09-19T02:53:55;2;2;
80643;PMS5003;70010;60.224;24.712;2023-09-19T02:56:20;4;3;
80643;PMS5003;70010;60.224;24.712;2023-09-19T02:58:45;4;4;
80643;PMS5003;70010;60.224;24.712;2023-09-19T03:01:11;4;4;
80643;PMS5003;70010;60.224;24.712;2023-09-19T03:03:36;5;3;
80643;PMS5003;70010;60.224;24.712;2023-09-19T03:06:01;4;4;
80643;PMS5003;70010;60.224;24.712;2023-09-19T03:08:26;5;5;
80643;PMS5003;70010;60.224;24.712;2023-09-19T03:10:52;6;4;
80643;PMS5003;70010;60.224;24.712;2023-09-19T03:13:17;5;4;
80643;PMS5003;70010;60.224;24.712;2023-09-19T03:15:42;5;5;
80643;PMS5003;70010;60.224;24.712;2023-09-19T03:18:07;5;3;
80643;PMS5003;70010;60.224;24.712;2023-09-19T03:20:33;4;4;
80643;PMS5003;70010;60.224;24.712;2023-09-19T03:22:58;5;5;
80643;PMS5003;70010;60.224;24.712;2023-09-19T03:25:23;5;5;
80643;PMS5003;70010;60.224;24.712;2023-09-19T03:27:48;6;6;
80643;PMS5003;70010;60.224;24.712;2023-09-19T03:30:14;9;7;
80643;PMS5003;70010;60.224;24.712;2023-09-19T03:32:43;4;4;
80643;PMS5003;70010;60.224;24.712;2023-09-19T03:35:05;7;6;
80643;PMS5003;70010;60.224;24.712;2023-09-19T03:37:30;6;5;
80643;PMS5003;70010;60.224;24.712;2023-09-19T03:39:55;7;5;
80643;PMS5003;70010;60.224;24.712;2023-09-19T03:42:21;9;9;
80643;PMS5003;70010;60.224;24.712;2023-09-19T03:44:46;9;7;
80643;PMS5003;70010;60.224;24.712;2023-09-19T03:47:11;7;5;
80643;PMS5003;70010;60.224;24.712;2023-09-19T03:49:37;10;9;
80643;PMS5003;70010;60.224;24.712;2023-09-19T03:52:03;8;8;
80643;PMS5003;70010;60.224;24.712;2023-09-19T03:54:28;10;8;
80643;PMS5003;70010;60.224;24.712;2023-09-19T03:56:53;8;7;
80643;PMS5003;70010;60.224;24.712;2023-09-19T03:59:19;8;8;
80643;PMS5003;70010;60.224;24.712;2023-09-19T04:01:44;7;7;
80643;PMS5003;70010;60.224;24.712;2023-09-19T04:04:10;10;8;
80643;PMS5003;70010;60.224;24.712;2023-09-19T04:06:35;8;8;
80643;PMS5003;70010;60.224;24.712;2023-09-19T04:09:01;13;13;
80643;PMS5003;70010;60.224;24.712;2023-09-19T04:11:26;12;11;
80643;PMS5003;70010;60.224;24.712;2023-09-19T04:13:51;9;9;
80643;PMS5003;70010;60.224;24.712;2023-09-19T04:16:17;13;10;
80643;PMS5003;70010;60.224;24.712;2023-09-19T04:18:42;7;6;
80643;PMS5003;70010;60.224;24.712;2023-09-19T04:21:07;9;8;
80643;PMS5003;70010;60.224;24.712;2023-09-19T04:23:33;10;10;
80643;PMS5003;70010;60.224;24.712;2023-09-19T04:25:59;11;11;
80643;PMS5003;70010;60.224;24.712;2023-09-19T04:28:24;11;8;
80643;PMS5003;70010;60.224;24.712;2023-09-19T04:30:49;10;8;
80643;PMS5003;70010;60.224;24.712;2023-09-19T04:33:15;6;6;
80643;PMS5003;70010;60.224;24.712;2023-09-19T04:35:40;7;7;
80643;PMS5003;70010;60.224;24.712;2023-09-19T04:38:05;9;7;
80643;PMS5003;70010;60.224;24.712;2023-09-19T04:40:31;9;7;
80643;PMS5003;70010;60.224;24.712;2023-09-19T04:42:56;6;6;
80643;PMS5003;70010;60.224;24.712;2023-09-19T04:45:22;8;6;
80643;PMS5003;70010;60.224;24.712;2023-09-19T04:47:47;5;5;
80643;PMS5003;70010;60.224;24.712;2023-09-19T04:50:12;7;7;
80643;PMS5003;70010;60.224;24.712;2023-09-19T04:52:38;6;6;
80643;PMS5003;70010;60.224;24.712;2023-09-19T04:55:03;4;4;
80643;PMS5003;70010;60.224;24.712;2023-09-19T04:57:28;5;5;
80643;PMS5003;70010;60.224;24.712;2023-09-19T04:59:53;6;6;
80643;PMS5003;70010;60.224;24.712;2023-09-19T05:02:18;5;4;
80643;PMS5003;70010;60.224;24.712;2023-09-19T05:04:44;4;4;
80643;PMS5003;70010;60.224;24.712;2023-09-19T05:07:09;7;5;
80643;PMS5003;70010;60.224;24.712;2023-09-19T05:09:34;6;6;
80643;PMS5003;70010;60.224;24.712;2023-09-19T05:11:59;7;7;
80643;PMS5003;70010;60.224;24.712;2023-09-19T05:14:24;5;5;
80643;PMS5003;70010;60.224;24.712;2023-09-19T05:16:50;8;8;
80643;PMS5003;70010;60.224;24.712;2023-09-19T05:19:15;10;7;
80643;PMS5003;70010;60.224;24.712;2023-09-19T05:21:40;10;7;
80643;PMS5003;70010;60.224;24.712;2023-09-19T05:24:06;7;6;
80643;PMS5003;70010;60.224;24.712;2023-09-19T05:26:31;5;5;
80643;PMS5003;70010;60.224;24.712;2023-09-19T05:28:56;6;6;
80643;PMS5003;70010;60.224;24.712;2023-09-19T05:31:22;10;8;
80643;PMS5003;70010;60.224;24.712;2023-09-19T05:33:47;6;4;
80643;PMS5003;70010;60.224;24.712;2023-09-19T05:36:12;7;7;
80643;PMS5003;70010;60.224;24.712;2023-09-19T05:38:37;10;6;
80643;PMS5003;70010;60.224;24.712;2023-09-19T05:41:03;10;9;
80643;PMS5003;70010;60.224;24.712;2023-09-19T05:43:28;8;7;
80643;PMS5003;70010;60.224;24.712;2023-09-19T05:45:54;8;8;
80643;PMS5003;70010;60.224;24.712;2023-09-19T05:48:19;10;9;
80643;PMS5003;70010;60.224;24.712;2023-09-19T05:50:45;9;8;
80643;PMS5003;70010;60.224;24.712;2023-09-19T05:53:10;11;8;
80643;PMS5003;70010;60.224;24.712;2023-09-19T05:55:35;9;8;
80643;PMS5003;70010;60.224;24.712;2023-09-19T05:58:01;6;6;
80643;PMS5003;70010;60.224;24.712;2023-09-19T06:00:26;8;8;
80643;PMS5003;70010;60.224;24.712;2023-09-19T06:02:51;9;8;
80643;PMS5003;70010;60.224;24.712;2023-09-19T06:05:17;5;5;
80643;PMS5003;70010;60.224;24.712;2023-09-19T06:07:42;8;6;
80643;PMS5003;70010;60.224;24.712;2023-09-19T06:10:08;6;6;
80643;PMS5003;70010;60.224;24.712;2023-09-19T06:12:33;7;5;
80643;PMS5003;70010;60.224;24.712;2023-09-19T06:14:59;9;8;
80643;PMS5003;70010;60.224;24.712;2023-09-19T06:17:24;8;8;
80643;PMS5003;70010;60.224;24.712;2023-09-19T06:19:49;7;7;
80643;PMS5003;70010;60.224;24.712;2023-09-19T06:22:15;14;12;
80643;PMS5003;70010;60.224;24.712;2023-09-19T06:24:40;7;6;
80643;PMS5003;70010;60.224;24.712;2023-09-19T06:27:06;9;8;
80643;PMS5003;70010;60.224;24.712;2023-09-19T06:29:31;9;9;
80643;PMS5003;70010;60.224;24.712;2023-09-19T06:31:57;10;10;
80643;PMS5003;70010;60.224;24.712;2023-09-19T06:34:22;11;7;
80643;PMS5003;70010;60.224;24.712;2023-09-19T06:36:47;8;8;
80643;PMS5003;70010;60.224;24.712;2023-09-19T06:39:12;9;8;
80643;PMS5003;70010;60.224;24.712;2023-09-19T06:41:38;10;10;
80643;PMS5003;70010;60.224;24.712;2023-09-19T06:44:03;13;12;
80643;PMS5003;70010;60.224;24.712;2023-09-19T06:46:28;10;9;
80643;PMS5003;70010;60.224;24.712;2023-09-19T06:48:53;9;8;
80643;PMS5003;70010;60.224;24.712;2023-09-19T06:51:19;9;8;
80643;PMS5003;70010;60.224;24.712;2023-09-19T06:53:44;9;8;
80643;PMS5003;70010;60.224;24.712;2023-09-19T06:56:10;9;7;
80643;PMS5003;70010;60.224;24.712;2023-09-19T06:58:35;10;10;
80643;PMS5003;70010;60.224;24.712;2023-09-19T07:01:01;11;10;
80643;PMS5003;70010;60.224;24.712;2023-09-19T07:03:26;12;9;
80643;PMS5003;70010;60.224;24.712;2023-09-19T07:05:52;9;9;
80643;PMS5003;70010;60.224;24.712;2023-09-19T07:08:17;11;11;
80643;PMS5003;70010;60.224;24.712;2023-09-19T07:10:42;9;9;
80643;PMS5003;70010;60.224;24.712;2023-09-19T07:13:08;10;8;
80643;PMS5003;70010;60.224;24.712;2023-09-19T07:15:33;9;8;
80643;PMS5003;70010;60.224;24.712;2023-09-19T07:17:58;10;10;
80643;PMS5003;70010;60.224;24.712;2023-09-19T07:20:24;9;9;
80643;PMS5003;70010;60.224;24.712;2023-09-19T07:22:49;10;10;
80643;PMS5003;70010;60.224;24.712;2023-09-19T07:25:15;9;9;
80643;PMS5003;70010;60.224;24.712;2023-09-19T07:27:40;13;12;
80643;PMS5003;70010;60.224;24.712;2023-09-19T07:30:06;11;11;
80643;PMS5003;70010;60.224;24.712;2023-09-19T07:32:31;17;13;
80643;PMS5003;70010;60.224;24.712;2023-09-19T07:34:56;10;10;
80643;PMS5003;70010;60.224;24.712;2023-09-19T07:37:22;12;11;
80643;PMS5003;70010;60.224;24.712;2023-09-19T07:39:47;13;13;
80643;PMS5003;70010;60.224;24.712;2023-09-19T07:42:12;15;9;
80643;PMS5003;70010;60.224;24.712;2023-09-19T07:44:37;13;12;
80643;PMS5003;70010;60.224;24.712;2023-09-19T07:47:03;11;10;
80643;PMS5003;70010;60.224;24.712;2023-09-19T07:49:28;17;12;
80643;PMS5003;70010;60.224;24.712;2023-09-19T07:51:54;14;14;
80643;PMS5003;70010;60.224;24.712;2023-09-19T07:54:20;13;11;
80643;PMS5003;70010;60.224;24.712;2023-09-19T07:56:45;12;12;
80643;PMS5003;70010;60.224;24.712;2023-09-19T07:59:10;10;10;
80643;PMS5003;70010;60.224;24.712;2023-09-19T08:01:35;14;13;
80643;PMS5003;70010;60.224;24.712;2023-09-19T08:04:01;18;17;
80643;PMS5003;70010;60.224;24.712;2023-09-19T08:06:26;20;20;
80643;PMS5003;70010;60.224;24.712;2023-09-19T08:08:52;16;14;
80643;PMS5003;70010;60.224;24.712;2023-09-19T08:11:17;23;21;
80643;PMS5003;70010;60.224;24.712;2023-09-19T08:13:42;20;18;
80643;PMS5003;70010;60.224;24.712;2023-09-19T08:16:08;21;15;
80643;PMS5003;70010;60.224;24.712;2023-09-19T08:18:33;23;22;
80643;PMS5003;70010;60.224;24.712;2023-09-19T08:20:59;20;18;
80643;PMS5003;70010;60.224;24.712;2023-09-19T08:23:24;19;15;
80643;PMS5003;70010;60.224;24.712;2023-09-19T08:25:50;16;16;
80643;PMS5003;70010;60.224;24.712;2023-09-19T08:28:15;19;19;
80643;PMS5003;70010;60.224;24.712;2023-09-19T08:30:41;22;18;
80643;PMS5003;70010;60.224;24.712;2023-09-19T08:33:06;23;18;
80643;PMS5003;70010;60.224;24.712;2023-09-19T08:35:32;23;23;
80643;PMS5003;70010;60.224;24.712;2023-09-19T08:37:57;18;16;
80643;PMS5003;70010;60.224;24.712;2023-09-19T08:40:22;16;16;
80643;PMS5003;70010;60.224;24.712;2023-09-19T08:42:48;18;17;
80643;PMS5003;70010;60.224;24.712;2023-09-19T08:45:13;21;20;
80643;PMS5003;70010;60.224;24.712;2023-09-19T08:47:40;20;17;
80643;PMS5003;70010;60.224;24.712;2023-09-19T08:50:04;16;15;
80643;PMS5003;70010;60.224;24.712;2023-09-19T08:52:32;22;21;
80643;PMS5003;70010;60.224;24.712;2023-09-19T08:54:55;21;21;
80643;PMS5003;70010;60.224;24.712;2023-09-19T08:57:20;20;19;
80643;PMS5003;70010;60.224;24.712;2023-09-19T08:59:46;21;19;
80643;PMS5003;70010;60.224;24.712;2023-09-19T09:02:12;21;19;
80643;PMS5003;70010;60.224;24.712;2023-09-19T09:04:38;15;15;
80643;PMS5003;70010;60.224;24.712;2023-09-19T09:07:03;21;21;
80643;PMS5003;70010;60.224;24.712;2023-09-19T09:09:28;18;18;
80643;PMS5003;70010;60.224;24.712;2023-09-19T09:11:54;17;14;
80643;PMS5003;70010;60.224;24.712;2023-09-19T09:14:19;24;20;
80643;PMS5003;70010;60.224;24.712;2023-09-19T09:16:45;22;21;
80643;PMS5003;70010;60.224;24.712;2023-09-19T09:19:10;19;17;
80643;PMS5003;70010;60.224;24.712;2023-09-19T09:21:36;23;17;
80643;PMS5003;70010;60.224;24.712;2023-09-19T09:28:52;16;15;
80643;PMS5003;70010;60.224;24.712;2023-09-19T09:31:22;24;21;
80643;PMS5003;70010;60.224;24.712;2023-09-19T09:33:43;16;14;
80643;PMS5003;70010;60.224;24.712;2023-09-19T09:36:08;21;18;
80643;PMS5003;70010;60.224;24.712;2023-09-19T09:41:00;22;20;
80643;PMS5003;70010;60.224;24.712;2023-09-19T09:43:27;17;15;
80643;PMS5003;70010;60.224;24.712;2023-09-19T09:45:50;22;19;
80643;PMS5003;70010;60.224;24.712;2023-09-19T09:48:15;17;17;
80643;PMS5003;70010;60.224;24.712;2023-09-19T09:50:46;24;21;
80643;PMS5003;70010;60.224;24.712;2023-09-19T10:00:23;24;23;
80643;PMS5003;70010;60.224;24.712;2023-09-19T10:02:48;22;20;
80643;PMS5003;70010;60.224;24.712;2023-09-19T10:05:14;23;21;
80643;PMS5003;70010;60.224;24.712;2023-09-19T10:07:39;16;14;
80643;PMS5003;70010;60.224;24.712;2023-09-19T10:10:04;27;23;
80643;PMS5003;70010;60.224;24.712;2023-09-19T10:12:29;20;17;
80643;PMS5003;70010;60.224;24.712;2023-09-19T10:14:55;20;17;
80643;PMS5003;70010;60.224;24.712;2023-09-19T10:17:20;27;25;
80643;PMS5003;70010;60.224;24.712;2023-09-19T10:19:46;28;25;
80643;PMS5003;70010;60.224;24.712;2023-09-19T10:22:11;21;18;
80643;PMS5003;70010;60.224;24.712;2023-09-19T10:24:37;25;22;
80643;PMS5003;70010;60.224;24.712;2023-09-19T10:27:02;24;24;
80643;PMS5003;70010;60.224;24.712;2023-09-19T10:29:27;27;25;
80643;PMS5003;70010;60.224;24.712;2023-09-19T10:31:53;26;24;
80643;PMS5003;70010;60.224;24.712;2023-09-19T10:34:18;16;16;
80643;PMS5003;70010;60.224;24.712;2023-09-19T10:36:44;24;22;
80643;PMS5003;70010;60.224;24.712;2023-09-19T10:39:09;29;25;
80643;PMS5003;70010;60.224;24.712;2023-09-19T10:41:35;27;25;
80643;PMS5003;70010;60.224;24.712;2023-09-19T10:44:01;29;25;
80643;PMS5003;70010;60.224;24.712;2023-09-19T10:46:26;22;21;
80643;PMS5003;70010;60.224;24.712;2023-09-19T10:48:51;28;27;
80643;PMS5003;70010;60.224;24.712;2023-09-19T10:51:18;23;23;
80643;PMS5003;70010;60.224;24.712;2023-09-19T10:53:44;27;25;
80643;PMS5003;70010;60.224;24.712;2023-09-19T10:56:07;26;21;
80643;PMS5003;70010;60.224;24.712;2023-09-19T10:58:33;26;23;
80643;PMS5003;70010;60.224;24.712;2023-09-19T11:00:59;22;20;
80643;PMS5003;70010;60.224;24.712;2023-09-19T11:03:24;25;22;
80643;PMS5003;70010;60.224;24.712;2023-09-19T11:08:16;32;27;
80643;PMS5003;70010;60.224;24.712;2023-09-19T11:10:44;26;25;
80643;PMS5003;70010;60.224;24.712;2023-09-19T11:17:57;20;19;
80643;PMS5003;70010;60.224;24.712;2023-09-19T11:20:24;22;19;
80643;PMS5003;70010;60.224;24.712;2023-09-19T11:27:38;25;23;
80643;PMS5003;70010;60.224;24.712;2023-09-19T11:34:54;25;22;
80643;PMS5003;70010;60.224;24.712;2023-09-19T11:39:50;22;19;
80643;PMS5003;70010;60.224;24.712;2023-09-19T11:44:36;25;21;
80643;PMS5003;70010;60.224;24.712;2023-09-19T11:47:01;26;25;
80643;PMS5003;70010;60.224;24.712;2023-09-19T11:49:27;30;26;
80643;PMS5003;70010;60.224;24.712;2023-09-19T11:51:52;23;19;
80643;PMS5003;70010;60.224;24.712;2023-09-19T11:54:18;22;19;
80643;PMS5003;70010;60.224;24.712;2023-09-19T11:56:43;20;19;
80643;PMS5003;70010;60.224;24.712;2023-09-19T11:59:08;22;20;
80643;PMS5003;70010;60.224;24.712;2023-09-19T12:01:34;23;20;
80643;PMS5003;70010;60.224;24.712;2023-09-19T12:04:00;25;21;
80643;PMS5003;70010;60.224;24.712;2023-09-19T12:06:25;20;18;
80643;PMS5003;70010;60.224;24.712;2023-09-19T12:08:51;20;17;
80643;PMS5003;70010;60.224;24.712;2023-09-19T12:11:16;30;27;
80643;PMS5003;70010;60.224;24.712;2023-09-19T12:13:42;22;21;
80643;PMS5003;70010;60.224;24.712;2023-09-19T12:16:10;26;22;
80643;PMS5003;70010;60.224;24.712;2023-09-19T12:18:32;20;19;
80643;PMS5003;70010;60.224;24.712;2023-09-19T12:20:58;24;23;
80643;PMS5003;70010;60.224;24.712;2023-09-19T12:23:24;19;19;
80643;PMS5003;70010;60.224;24.712;2023-09-19T12:25:49;22;21;
80643;PMS5003;70010;60.224;24.712;2023-09-19T12:28:14;19;17;
80643;PMS5003;70010;60.224;24.712;2023-09-19T12:30:40;22;20;
80643;PMS5003;70010;60.224;24.712;2023-09-19T12:33:05;30;28;
80643;PMS5003;70010;60.224;24.712;2023-09-19T12:35:31;25;23;
80643;PMS5003;70010;60.224;24.712;2023-09-19T12:37:56;22;21;
80643;PMS5003;70010;60.224;24.712;2023-09-19T12:40:22;21;17;
80643;PMS5003;70010;60.224;24.712;2023-09-19T12:42:48;20;20;
80643;PMS5003;70010;60.224;24.712;2023-09-19T12:45:13;24;21;
80643;PMS5003;70010;60.224;24.712;2023-09-19T12:47:38;24;23;
80643;PMS5003;70010;60.224;24.712;2023-09-19T12:50:05;27;25;
80643;PMS5003;70010;60.224;24.712;2023-09-19T12:52:33;20;19;
80643;PMS5003;70010;60.224;24.712;2023-09-19T12:54:55;22;21;
80643;PMS5003;70010;60.224;24.712;2023-09-19T12:57:23;24;20;
80643;PMS5003;70010;60.224;24.712;2023-09-19T12:59:46;26;24;
80643;PMS5003;70010;60.224;24.712;2023-09-19T13:02:11;24;23;
80643;PMS5003;70010;60.224;24.712;2023-09-19T13:04:36;28;25;
80643;PMS5003;70010;60.224;24.712;2023-09-19T13:07:01;24;23;
80643;PMS5003;70010;60.224;24.712;2023-09-19T13:09:27;24;24;
80643;PMS5003;70010;60.224;24.712;2023-09-19T13:11:52;23;23;
80643;PMS5003;70010;60.224;24.712;2023-09-19T13:14:19;26;26;
80643;PMS5003;70010;60.224;24.712;2023-09-19T13:19:08;33;31;
80643;PMS5003;70010;60.224;24.712;2023-09-19T13:21:34;26;26;
80643;PMS5003;70010;60.224;24.712;2023-09-19T13:26:26;25;24;
80643;PMS5003;70010;60.224;24.712;2023-09-19T13:28:51;24;23;
80643;PMS5003;70010;60.224;24.712;2023-09-19T13:31:16;30;28;
80643;PMS5003;70010;60.224;24.712;2023-09-19T13:33:43;31;29;
80643;PMS5003;70010;60.224;24.712;2023-09-19T13:36:07;26;25;
80643;PMS5003;70010;60.224;24.712;2023-09-19T13:38:33;27;21;
80643;PMS5003;70010;60.224;24.712;2023-09-19T13:40:58;33;28;
80643;PMS5003;70010;60.224;24.712;2023-09-19T13:43:23;26;25;
80643;PMS5003;70010;60.224;24.712;2023-09-19T13:45:49;29;24;
80643;PMS5003;70010;60.224;24.712;2023-09-19T13:48:14;29;28;
80643;PMS5003;70010;60.224;24.712;2023-09-19T13:50:40;33;31;
80643;PMS5003;70010;60.224;24.712;2023-09-19T13:53:05;31;28;
80643;PMS5003;70010;60.224;24.712;2023-09-19T13:55:30;28;28;
80643;PMS5003;70010;60.224;24.712;2023-09-19T13:57:56;28;28;
80643;PMS5003;70010;60.224;24.712;2023-09-19T14:00:21;34;28;
80643;PMS5003;70010;60.224;24.712;2023-09-19T14:02:46;35;29;
80643;PMS5003;70010;60.224;24.712;2023-09-19T14:05:12;32;30;
80643;PMS5003;70010;60.224;24.712;2023-09-19T14:07:37;30;30;
80643;PMS5003;70010;60.224;24.712;2023-09-19T14:10:03;33;29;
80643;PMS5003;70010;60.224;24.712;2023-09-19T14:12:28;30;26;
80643;PMS5003;70010;60.224;24.712;2023-09-19T14:14:54;36;33;
80643;PMS5003;70010;60.224;24.712;2023-09-19T14:17:20;33;32;
80643;PMS5003;70010;60.224;24.712;2023-09-19T14:19:45;34;29;
80643;PMS5003;70010;60.224;24.712;2023-09-19T14:22:10;31;25;
80643;PMS5003;70010;60.224;24.712;2023-09-19T14:24:35;36;35;
80643;PMS5003;70010;60.224;24.712;2023-09-19T14:27:01;30;29;
80643;PMS5003;70010;60.224;24.712;2023-09-19T14:29:26;36;34;
80643;PMS5003;70010;60.224;24.712;2023-09-19T14:31:52;32;28;
80643;PMS5003;70010;60.224;24.712;2023-09-19T14:34:17;35;33;
80643;PMS5003;70010;60.224;24.712;2023-09-19T14:36:43;37;33;
80643;PMS5003;70010;60.224;24.712;2023-09-19T14:39:08;31;29;
80643;PMS5003;70010;60.224;24.712;2023-09-19T14:41:34;41;36;
80643;PMS5003;70010;60.224;24.712;2023-09-19T14:44:01;38;35;
80643;PMS5003;70010;60.224;24.712;2023-09-19T14:46:25;39;36;
80643;PMS5003;70010;60.224;24.712;2023-09-19T14:48:50;50;42;
80643;PMS5003;70010;60.224;24.712;2023-09-19T14:51:16;40;37;
80643;PMS5003;70010;60.224;24.712;2023-09-19T14:53:41;43;39;
80643;PMS5003;70010;60.224;24.712;2023-09-19T14:56:07;43;39;
80643;PMS5003;70010;60.224;24.712;2023-09-19T14:58:32;40;39;
80643;PMS5003;70010;60.224;24.712;2023-09-19T15:01:02;36;35;
80643;PMS5003;70010;60.224;24.712;2023-09-19T15:03:23;38;36;
80643;PMS5003;70010;60.224;24.712;2023-09-19T15:05:49;28;28;
80643;PMS5003;70010;60.224;24.712;2023-09-19T15:08:14;32;30;
80643;PMS5003;70010;60.224;24.712;2023-09-19T15:10:40;38;36;
80643;PMS5003;70010;60.224;24.712;2023-09-19T15:13:06;31;28;
80643;PMS5003;70010;60.224;24.712;2023-09-19T15:15:31;35;33;
80643;PMS5003;70010;60.224;24.712;2023-09-19T15:17:57;29;29;
80643;PMS5003;70010;60.224;24.712;2023-09-19T15:20:23;33;29;
80643;PMS5003;70010;60.224;24.712;2023-09-19T15:22:49;28;25;
80643;PMS5003;70010;60.224;24.712;2023-09-19T15:25:13;24;21;
80643;PMS5003;70010;60.224;24.712;2023-09-19T15:27:39;22;21;
80643;PMS5003;70010;60.224;24.712;2023-09-19T15:30:05;28;28;
80643;PMS5003;70010;60.224;24.712;2023-09-19T15:32:30;31;27;
80643;PMS5003;70010;60.224;24.712;2023-09-19T15:34:55;25;21;
80643;PMS5003;70010;60.224;24.712;2023-09-19T15:37:20;31;26;
80643;PMS5003;70010;60.224;24.712;2023-09-19T15:39:46;28;25;
80643;PMS5003;70010;60.224;24.712;2023-09-19T15:42:11;32;32;
80643;PMS5003;70010;60.224;24.712;2023-09-19T15:44:37;31;29;
80643;PMS5003;70010;60.224;24.712;2023-09-19T15:47:02;27;24;
80643;PMS5003;70010;60.224;24.712;2023-09-19T15:49:27;34;33;
80643;PMS5003;70010;60.224;24.712;2023-09-19T15:51:53;37;33;
80643;PMS5003;70010;60.224;24.712;2023-09-19T15:54:18;31;28;
80643;PMS5003;70010;60.224;24.712;2023-09-19T15:56:44;36;31;
80643;PMS5003;70010;60.224;24.712;2023-09-19T15:59:09;35;33;
80643;PMS5003;70010;60.224;24.712;2023-09-19T16:01:34;27;26;
80643;PMS5003;70010;60.224;24.712;2023-09-19T16:03:59;36;30;
80643;PMS5003;70010;60.224;24.712;2023-09-19T16:06:25;36;32;
80643;PMS5003;70010;60.224;24.712;2023-09-19T16:08:50;28;22;
80643;PMS5003;70010;60.224;24.712;2023-09-19T16:11:15;34;34;
80643;PMS5003;70010;60.224;24.712;2023-09-19T16:13:41;25;25;
80643;PMS5003;70010;60.224;24.712;2023-09-19T16:16:05;26;23;
80643;PMS5003;70010;60.224;24.712;2023-09-19T16:18:31;27;26;
80643;PMS5003;70010;60.224;24.712;2023-09-19T16:21:00;26;24;
80643;PMS5003;70010;60.224;24.712;2023-09-19T16:23:22;33;27;
80643;PMS5003;70010;60.224;24.712;2023-09-19T16:25:48;23;22;
80643;PMS5003;70010;60.224;24.712;2023-09-19T16:28:13;25;22;
80643;PMS5003;70010;60.224;24.712;2023-09-19T16:30:39;28;22;
80643;PMS5003;70010;60.224;24.712;2023-09-19T16:33:04;25;23;
80643;PMS5003;70010;60.224;24.712;2023-09-19T16:35:30;25;24;
80643;PMS5003;70010;60.224;24.712;2023-09-19T16:37:56;31;27;
80643;PMS5003;70010;60.224;24.712;2023-09-19T16:40:21;26;25;
80643;PMS5003;70010;60.224;24.712;2023-09-19T16:42:47;27;25;